sensor_id;sensor_type;location;lat;lon;timestamp;temperature;humidity
52181;DHT22;38158;53.338;6.514;2022-10-16T00:00:31;12.30;99.90
52181;DHT22;38158;53.338;6.514;2022-10-16T00:02:57;12.30;99.90
52181;DHT22;38158;53.338;6.514;2022-10-16T00:05:22;12.30;99.90
52181;DHT22;38158;53.338;6.514;2022-10-16T00:07:48;12.30;99.90
52181;DHT22;38158;53.338;6.514;2022-10-16T00:10:14;12.30;99.90
52181;DHT22;38158;53.338;6.514;2022-10-16T00:12:39;12.30;99.90
52181;DHT22;38158;53.338;6.514;2022-10-16T00:15:05;12.20;99.90
52181;DHT22;38158;53.338;6.514;2022-10-16T00:17:31;12.20;99.90
52181;DHT22;38158;53.338;6.514;2022-10-16T00:19:57;12.20;99.90
52181;DHT22;38158;53.338;6.514;2022-10-16T00:22:23;12.20;99.90
52181;DHT22;38158;53.338;6.514;2022-10-16T00:24:49;12.10;99.90
52181;DHT22;38158;53.338;6.514;2022-10-16T00:27:14;12.10;99.90
52181;DHT22;38158;53.338;6.514;2022-10-16T00:29:40;12.10;99.90
52181;DHT22;38158;53.338;6.514;2022-10-16T00:32:06;12.10;99.90
52181;DHT22;38158;53.338;6.514;2022-10-16T00:34:31;12.10;99.90
52181;DHT22;38158;53.338;6.514;2022-10-16T00:36:57;12.10;99.90
52181;DHT22;38158;53.338;6.514;2022-10-16T00:39:23;12.10;99.90
52181;DHT22;38158;53.338;6.514;2022-10-16T00:41:49;12.00;99.90
52181;DHT22;38158;53.338;6.514;2022-10-16T00:44:44;12.10;99.90
52181;DHT22;38158;53.338;6.514;2022-10-16T00:47:15;12.10;99.90
52181;DHT22;38158;53.338;6.514;2022-10-16T00:49:42;12.10;99.90
52181;DHT22;38158;53.338;6.514;2022-10-16T00:52:10;12.10;99.90
52181;DHT22;38158;53.338;6.514;2022-10-16T00:54:35;12.10;99.90
52181;DHT22;38158;53.338;6.514;2022-10-16T00:57:05;12.10;99.90
52181;DHT22;38158;53.338;6.514;2022-10-16T00:59:34;12.10;99.90
52181;DHT22;38158;53.338;6.514;2022-10-16T01:02:01;12.10;99.90
52181;DHT22;38158;53.338;6.514;2022-10-16T01:04:32;12.10;99.90
52181;DHT22;38158;53.338;6.514;2022-10-16T01:17:58;12.00;99.90
52181;DHT22;38158;53.338;6.514;2022-10-16T01:20:30;12.00;99.90
52181;DHT22;38158;53.338;6.514;2022-10-16T01:23:15;12.00;99.90
52181;DHT22;38158;53.338;6.514;2022-10-16T01:28:38;12.00;99.90
52181;DHT22;38158;53.338;6.514;2022-10-16T01:31:05;12.00;99.90
52181;DHT22;38158;53.338;6.514;2022-10-16T01:33:40;12.00;99.90
52181;DHT22;38158;53.338;6.514;2022-10-16T01:36:13;12.00;99.90
52181;DHT22;38158;53.338;6.514;2022-10-16T01:38:40;12.10;99.90
52181;DHT22;38158;53.338;6.514;2022-10-16T01:41:18;12.10;99.90
52181;DHT22;38158;53.338;6.514;2022-10-16T01:46:22;12.10;99.90
52181;DHT22;38158;53.338;6.514;2022-10-16T01:48:48;12.20;99.90
52181;DHT22;38158;53.338;6.514;2022-10-16T01:51:16;12.30;99.90
52181;DHT22;38158;53.338;6.514;2022-10-16T01:53:46;12.30;99.90
52181;DHT22;38158;53.338;6.514;2022-10-16T01:56:14;12.30;99.90
52181;DHT22;38158;53.338;6.514;2022-10-16T01:59:29;12.40;99.90
52181;DHT22;38158;53.338;6.514;2022-10-16T02:01:37;12.40;99.90
52181;DHT22;38158;53.338;6.514;2022-10-16T02:04:09;12.50;99.90
52181;DHT22;38158;53.338;6.514;2022-10-16T02:06:38;12.50;99.90
52181;DHT22;38158;53.338;6.514;2022-10-16T02:09:03;12.50;99.90
52181;DHT22;38158;53.338;6.514;2022-10-16T02:11:29;12.50;99.90
52181;DHT22;38158;53.338;6.514;2022-10-16T02:13:59;12.60;99.90
52181;DHT22;38158;53.338;6.514;2022-10-16T02:16:41;12.60;99.90
52181;DHT22;38158;53.338;6.514;2022-10-16T02:19:07;12.60;99.90
52181;DHT22;38158;53.338;6.514;2022-10-16T02:21:56;12.60;99.90
52181;DHT22;38158;53.338;6.514;2022-10-16T02:29:40;12.60;99.90
52181;DHT22;38158;53.338;6.514;2022-10-16T02:32:11;12.60;99.90
52181;DHT22;38158;53.338;6.514;2022-10-16T02:34:40;12.60;99.90
52181;DHT22;38158;53.338;6.514;2022-10-16T02:37:06;12.60;99.90
52181;DHT22;38158;53.338;6.514;2022-10-16T02:39:33;12.60;99.90
52181;DHT22;38158;53.338;6.514;2022-10-16T02:42:00;12.60;99.90
52181;DHT22;38158;53.338;6.514;2022-10-16T02:44:25;12.60;99.90
52181;DHT22;38158;53.338;6.514;2022-10-16T02:46:51;12.60;99.90
52181;DHT22;38158;53.338;6.514;2022-10-16T02:49:16;12.60;99.90
52181;DHT22;38158;53.338;6.514;2022-10-16T02:51:43;12.50;99.90
52181;DHT22;38158;53.338;6.514;2022-10-16T02:54:09;12.50;99.90
52181;DHT22;38158;53.338;6.514;2022-10-16T02:56:34;12.50;99.90
52181;DHT22;38158;53.338;6.514;2022-10-16T02:59:00;12.50;99.90
52181;DHT22;38158;53.338;6.514;2022-10-16T03:01:26;12.50;99.90
52181;DHT22;38158;53.338;6.514;2022-10-16T03:03:51;12.50;99.90
52181;DHT22;38158;53.338;6.514;2022-10-16T03:06:17;12.50;99.90
52181;DHT22;38158;53.338;6.514;2022-10-16T03:08:43;12.50;99.90
52181;DHT22;38158;53.338;6.514;2022-10-16T03:11:08;12.50;99.90
52181;DHT22;38158;53.338;6.514;2022-10-16T03:13:34;12.50;99.90
52181;DHT22;38158;53.338;6.514;2022-10-16T03:16:00;12.50;99.90
52181;DHT22;38158;53.338;6.514;2022-10-16T03:18:25;12.40;99.90
52181;DHT22;38158;53.338;6.514;2022-10-16T03:20:51;12.40;99.90
52181;DHT22;38158;53.338;6.514;2022-10-16T03:23:17;12.40;99.90
52181;DHT22;38158;53.338;6.514;2022-10-16T03:25:42;12.40;99.90
52181;DHT22;38158;53.338;6.514;2022-10-16T03:28:08;12.30;99.90
52181;DHT22;38158;53.338;6.514;2022-10-16T03:30:34;12.30;99.90
52181;DHT22;38158;53.338;6.514;2022-10-16T03:33:00;12.20;99.90
52181;DHT22;38158;53.338;6.514;2022-10-16T03:35:25;12.20;99.90
52181;DHT22;38158;53.338;6.514;2022-10-16T03:37:51;12.20;99.90
52181;DHT22;38158;53.338;6.514;2022-10-16T03:40:17;12.10;99.90
52181;DHT22;38158;53.338;6.514;2022-10-16T03:42:43;12.10;99.90
52181;DHT22;38158;53.338;6.514;2022-10-16T03:45:10;12.10;99.90
52181;DHT22;38158;53.338;6.514;2022-10-16T03:47:36;12.00;99.90
52181;DHT22;38158;53.338;6.514;2022-10-16T03:50:02;12.00;99.90
52181;DHT22;38158;53.338;6.514;2022-10-16T03:52:27;12.00;99.90
52181;DHT22;38158;53.338;6.514;2022-10-16T03:54:53;12.10;99.90
52181;DHT22;38158;53.338;6.514;2022-10-16T03:57:19;12.00;99.90
52181;DHT22;38158;53.338;6.514;2022-10-16T03:59:46;12.10;99.90
52181;DHT22;38158;53.338;6.514;2022-10-16T04:02:12;12.10;99.90
52181;DHT22;38158;53.338;6.514;2022-10-16T04:04:38;12.10;99.90
52181;DHT22;38158;53.338;6.514;2022-10-16T04:07:04;12.10;99.90
52181;DHT22;38158;53.338;6.514;2022-10-16T04:09:30;12.00;99.90
52181;DHT22;38158;53.338;6.514;2022-10-16T04:11:56;12.00;99.90
52181;DHT22;38158;53.338;6.514;2022-10-16T04:14:21;12.00;99.90
52181;DHT22;38158;53.338;6.514;2022-10-16T04:16:47;12.10;99.90
52181;DHT22;38158;53.338;6.514;2022-10-16T04:19:13;12.10;99.90
52181;DHT22;38158;53.338;6.514;2022-10-16T04:21:38;12.10;99.90
52181;DHT22;38158;53.338;6.514;2022-10-16T04:24:04;12.10;99.90
52181;DHT22;38158;53.338;6.514;2022-10-16T04:26:31;12.10;99.90
52181;DHT22;38158;53.338;6.514;2022-10-16T04:28:57;12.20;99.90
52181;DHT22;38158;53.338;6.514;2022-10-16T04:31:22;12.10;99.90
52181;DHT22;38158;53.338;6.514;2022-10-16T04:33:48;12.20;99.90
52181;DHT22;38158;53.338;6.514;2022-10-16T04:36:14;12.20;99.90
52181;DHT22;38158;53.338;6.514;2022-10-16T04:38:39;12.20;99.90
52181;DHT22;38158;53.338;6.514;2022-10-16T04:41:06;12.20;99.90
52181;DHT22;38158;53.338;6.514;2022-10-16T04:43:33;12.30;99.90
52181;DHT22;38158;53.338;6.514;2022-10-16T04:45:59;12.30;99.90
52181;DHT22;38158;53.338;6.514;2022-10-16T04:48:24;12.30;99.90
52181;DHT22;38158;53.338;6.514;2022-10-16T04:50:50;12.30;99.90
52181;DHT22;38158;53.338;6.514;2022-10-16T04:53:16;12.40;99.90
52181;DHT22;38158;53.338;6.514;2022-10-16T04:55:42;12.40;99.90
52181;DHT22;38158;53.338;6.514;2022-10-16T04:58:08;12.40;99.90
52181;DHT22;38158;53.338;6.514;2022-10-16T05:00:34;12.40;99.90
52181;DHT22;38158;53.338;6.514;2022-10-16T05:03:00;12.40;99.90
52181;DHT22;38158;53.338;6.514;2022-10-16T05:05:27;12.40;99.90
52181;DHT22;38158;53.338;6.514;2022-10-16T05:07:53;12.40;99.90
52181;DHT22;38158;53.338;6.514;2022-10-16T05:10:19;12.40;99.90
52181;DHT22;38158;53.338;6.514;2022-10-16T05:12:46;12.40;99.90
52181;DHT22;38158;53.338;6.514;2022-10-16T05:15:11;12.40;99.90
52181;DHT22;38158;53.338;6.514;2022-10-16T05:17:37;12.40;99.90
52181;DHT22;38158;53.338;6.514;2022-10-16T05:20:03;12.40;99.90
52181;DHT22;38158;53.338;6.514;2022-10-16T05:22:29;12.30;99.90
52181;DHT22;38158;53.338;6.514;2022-10-16T05:24:55;12.40;99.90
52181;DHT22;38158;53.338;6.514;2022-10-16T05:27:21;12.40;99.90
52181;DHT22;38158;53.338;6.514;2022-10-16T05:29:47;12.40;99.90
52181;DHT22;38158;53.338;6.514;2022-10-16T05:32:14;12.30;99.90
52181;DHT22;38158;53.338;6.514;2022-10-16T05:34:40;12.40;99.90
52181;DHT22;38158;53.338;6.514;2022-10-16T05:37:06;12.40;99.90
52181;DHT22;38158;53.338;6.514;2022-10-16T05:39:32;12.40;99.90
52181;DHT22;38158;53.338;6.514;2022-10-16T05:41:58;12.40;99.90
52181;DHT22;38158;53.338;6.514;2022-10-16T05:44:24;12.40;99.90
52181;DHT22;38158;53.338;6.514;2022-10-16T05:46:49;12.40;99.90
52181;DHT22;38158;53.338;6.514;2022-10-16T05:49:15;12.30;99.90
52181;DHT22;38158;53.338;6.514;2022-10-16T05:51:41;12.30;99.90
52181;DHT22;38158;53.338;6.514;2022-10-16T05:54:07;12.30;99.90
52181;DHT22;38158;53.338;6.514;2022-10-16T05:56:33;12.30;99.90
52181;DHT22;38158;53.338;6.514;2022-10-16T05:58:59;12.20;99.90
52181;DHT22;38158;53.338;6.514;2022-10-16T06:01:24;12.20;99.90
52181;DHT22;38158;53.338;6.514;2022-10-16T06:03:51;12.20;99.90
52181;DHT22;38158;53.338;6.514;2022-10-16T06:06:22;12.10;99.90
52181;DHT22;38158;53.338;6.514;2022-10-16T06:08:49;12.10;99.90
52181;DHT22;38158;53.338;6.514;2022-10-16T06:11:21;12.10;99.90
52181;DHT22;38158;53.338;6.514;2022-10-16T06:13:51;12.10;99.90
52181;DHT22;38158;53.338;6.514;2022-10-16T06:16:17;12.10;99.90
52181;DHT22;38158;53.338;6.514;2022-10-16T06:18:43;12.10;99.90
52181;DHT22;38158;53.338;6.514;2022-10-16T06:21:12;12.00;99.90
52181;DHT22;38158;53.338;6.514;2022-10-16T06:23:37;12.00;99.90
52181;DHT22;38158;53.338;6.514;2022-10-16T06:26:11;12.10;99.90
52181;DHT22;38158;53.338;6.514;2022-10-16T06:28:37;12.20;99.90
52181;DHT22;38158;53.338;6.514;2022-10-16T06:31:05;12.20;99.90
52181;DHT22;38158;53.338;6.514;2022-10-16T06:33:31;12.20;99.90
52181;DHT22;38158;53.338;6.514;2022-10-16T06:36:04;12.30;99.90
52181;DHT22;38158;53.338;6.514;2022-10-16T06:38:31;12.30;99.90
52181;DHT22;38158;53.338;6.514;2022-10-16T06:40:58;12.30;99.90
52181;DHT22;38158;53.338;6.514;2022-10-16T06:43:24;12.30;99.90
52181;DHT22;38158;53.338;6.514;2022-10-16T06:45:51;12.30;99.90
52181;DHT22;38158;53.338;6.514;2022-10-16T06:48:18;12.30;99.90
52181;DHT22;38158;53.338;6.514;2022-10-16T06:50:43;12.30;99.90
52181;DHT22;38158;53.338;6.514;2022-10-16T06:53:09;12.30;99.90
52181;DHT22;38158;53.338;6.514;2022-10-16T06:55:35;12.30;99.90
52181;DHT22;38158;53.338;6.514;2022-10-16T06:58:00;12.50;99.90
52181;DHT22;38158;53.338;6.514;2022-10-16T07:00:26;12.40;99.90
52181;DHT22;38158;53.338;6.514;2022-10-16T07:02:52;12.30;99.90
52181;DHT22;38158;53.338;6.514;2022-10-16T07:05:17;12.40;99.90
52181;DHT22;38158;53.338;6.514;2022-10-16T07:07:43;12.40;99.90
52181;DHT22;38158;53.338;6.514;2022-10-16T07:10:09;12.40;99.90
52181;DHT22;38158;53.338;6.514;2022-10-16T07:12:34;12.50;99.90
52181;DHT22;38158;53.338;6.514;2022-10-16T07:15:00;12.50;99.90
52181;DHT22;38158;53.338;6.514;2022-10-16T07:17:25;12.50;99.90
52181;DHT22;38158;53.338;6.514;2022-10-16T07:19:51;12.50;99.90
52181;DHT22;38158;53.338;6.514;2022-10-16T07:22:18;12.50;99.90
52181;DHT22;38158;53.338;6.514;2022-10-16T07:24:44;12.50;99.90
52181;DHT22;38158;53.338;6.514;2022-10-16T07:27:10;12.60;99.90
52181;DHT22;38158;53.338;6.514;2022-10-16T07:29:35;12.60;99.90
52181;DHT22;38158;53.338;6.514;2022-10-16T07:32:02;12.60;99.90
52181;DHT22;38158;53.338;6.514;2022-10-16T07:34:27;12.50;99.90
52181;DHT22;38158;53.338;6.514;2022-10-16T07:36:53;12.50;99.90
52181;DHT22;38158;53.338;6.514;2022-10-16T07:39:19;12.60;99.90
52181;DHT22;38158;53.338;6.514;2022-10-16T07:41:45;12.60;99.90
52181;DHT22;38158;53.338;6.514;2022-10-16T07:44:10;12.60;99.90
52181;DHT22;38158;53.338;6.514;2022-10-16T07:46:36;12.70;99.90
52181;DHT22;38158;53.338;6.514;2022-10-16T07:49:03;12.70;99.90
52181;DHT22;38158;53.338;6.514;2022-10-16T07:51:29;12.70;99.90
52181;DHT22;38158;53.338;6.514;2022-10-16T07:53:55;12.70;99.90
52181;DHT22;38158;53.338;6.514;2022-10-16T07:56:21;12.80;99.90
52181;DHT22;38158;53.338;6.514;2022-10-16T07:58:47;12.80;99.90
52181;DHT22;38158;53.338;6.514;2022-10-16T08:01:16;12.90;99.90
52181;DHT22;38158;53.338;6.514;2022-10-16T08:03:46;12.80;99.90
52181;DHT22;38158;53.338;6.514;2022-10-16T08:06:12;12.90;99.90
52181;DHT22;38158;53.338;6.514;2022-10-16T08:08:38;13.00;99.90
52181;DHT22;38158;53.338;6.514;2022-10-16T08:11:04;13.00;99.90
52181;DHT22;38158;53.338;6.514;2022-10-16T08:13:30;13.10;99.90
52181;DHT22;38158;53.338;6.514;2022-10-16T08:15:56;13.20;99.90
52181;DHT22;38158;53.338;6.514;2022-10-16T08:18:22;13.30;99.90
52181;DHT22;38158;53.338;6.514;2022-10-16T08:20:54;13.30;99.90
52181;DHT22;38158;53.338;6.514;2022-10-16T08:23:20;13.40;99.90
52181;DHT22;38158;53.338;6.514;2022-10-16T08:25:45;13.40;99.90
52181;DHT22;38158;53.338;6.514;2022-10-16T08:28:11;13.40;99.90
52181;DHT22;38158;53.338;6.514;2022-10-16T08:30:37;13.40;99.90
52181;DHT22;38158;53.338;6.514;2022-10-16T08:33:03;13.40;99.90
52181;DHT22;38158;53.338;6.514;2022-10-16T08:35:29;13.50;99.90
52181;DHT22;38158;53.338;6.514;2022-10-16T08:37:55;13.60;99.90
52181;DHT22;38158;53.338;6.514;2022-10-16T08:40:32;13.60;99.90
52181;DHT22;38158;53.338;6.514;2022-10-16T08:51:07;13.80;99.90
52181;DHT22;38158;53.338;6.514;2022-10-16T08:53:44;13.80;99.90
52181;DHT22;38158;53.338;6.514;2022-10-16T08:56:12;13.90;99.90
52181;DHT22;38158;53.338;6.514;2022-10-16T08:58:37;13.90;99.90
52181;DHT22;38158;53.338;6.514;2022-10-16T09:01:04;14.00;99.90
52181;DHT22;38158;53.338;6.514;2022-10-16T09:03:54;14.00;99.90
52181;DHT22;38158;53.338;6.514;2022-10-16T09:06:31;14.00;99.90
52181;DHT22;38158;53.338;6.514;2022-10-16T09:12:05;13.90;99.90
52181;DHT22;38158;53.338;6.514;2022-10-16T09:15:06;13.80;99.90
52181;DHT22;38158;53.338;6.514;2022-10-16T09:22:38;14.10;99.90
52181;DHT22;38158;53.338;6.514;2022-10-16T09:25:14;14.20;99.90
52181;DHT22;38158;53.338;6.514;2022-10-16T09:27:40;14.40;99.90
52181;DHT22;38158;53.338;6.514;2022-10-16T09:30:16;14.50;99.90
52181;DHT22;38158;53.338;6.514;2022-10-16T09:32:44;14.50;99.90
52181;DHT22;38158;53.338;6.514;2022-10-16T09:35:16;14.60;99.90
52181;DHT22;38158;53.338;6.514;2022-10-16T09:37:45;14.70;99.90
52181;DHT22;38158;53.338;6.514;2022-10-16T09:40:23;14.70;99.90
52181;DHT22;38158;53.338;6.514;2022-10-16T09:42:48;14.80;99.90
52181;DHT22;38158;53.338;6.514;2022-10-16T09:45:23;14.80;99.90
52181;DHT22;38158;53.338;6.514;2022-10-16T09:47:49;14.90;99.90
52181;DHT22;38158;53.338;6.514;2022-10-16T09:50:27;15.00;99.90
52181;DHT22;38158;53.338;6.514;2022-10-16T09:53:11;15.10;99.90
52181;DHT22;38158;53.338;6.514;2022-10-16T09:55:48;15.20;99.90
52181;DHT22;38158;53.338;6.514;2022-10-16T09:58:14;15.20;99.90
52181;DHT22;38158;53.338;6.514;2022-10-16T10:00:41;15.30;99.90
52181;DHT22;38158;53.338;6.514;2022-10-16T10:03:34;15.30;99.90
52181;DHT22;38158;53.338;6.514;2022-10-16T10:06:18;15.30;99.90
52181;DHT22;38158;53.338;6.514;2022-10-16T10:12:00;15.30;99.90
52181;DHT22;38158;53.338;6.514;2022-10-16T10:14:35;15.40;99.90
52181;DHT22;38158;53.338;6.514;2022-10-16T10:19:52;15.50;99.90
52181;DHT22;38158;53.338;6.514;2022-10-16T10:33:37;16.10;99.90
52181;DHT22;38158;53.338;6.514;2022-10-16T10:42:02;16.20;99.90
52181;DHT22;38158;53.338;6.514;2022-10-16T10:44:40;16.00;99.90
52181;DHT22;38158;53.338;6.514;2022-10-16T10:47:33;15.80;99.90
52181;DHT22;38158;53.338;6.514;2022-10-16T11:01:10;15.40;99.90
52181;DHT22;38158;53.338;6.514;2022-10-16T11:06:10;15.70;99.90
52181;DHT22;38158;53.338;6.514;2022-10-16T11:11:20;16.10;99.90
52181;DHT22;38158;53.338;6.514;2022-10-16T11:17:04;15.90;99.90
52181;DHT22;38158;53.338;6.514;2022-10-16T11:22:34;16.20;99.90
52181;DHT22;38158;53.338;6.514;2022-10-16T11:28:09;16.10;99.90
52181;DHT22;38158;53.338;6.514;2022-10-16T11:34:01;16.20;99.90
52181;DHT22;38158;53.338;6.514;2022-10-16T11:36:34;16.30;99.90
52181;DHT22;38158;53.338;6.514;2022-10-16T11:39:28;16.40;99.90
52181;DHT22;38158;53.338;6.514;2022-10-16T11:41:56;16.50;99.90
52181;DHT22;38158;53.338;6.514;2022-10-16T11:50:00;16.60;99.90
52181;DHT22;38158;53.338;6.514;2022-10-16T11:52:50;16.70;99.90
52181;DHT22;38158;53.338;6.514;2022-10-16T11:55:30;16.50;99.90
52181;DHT22;38158;53.338;6.514;2022-10-16T12:00:47;16.10;99.90
52181;DHT22;38158;53.338;6.514;2022-10-16T12:08:54;15.80;99.90
52181;DHT22;38158;53.338;6.514;2022-10-16T12:17:00;16.10;99.90
52181;DHT22;38158;53.338;6.514;2022-10-16T12:19:31;16.20;99.90
52181;DHT22;38158;53.338;6.514;2022-10-16T12:22:02;16.20;99.90
52181;DHT22;38158;53.338;6.514;2022-10-16T12:26:54;16.20;99.90
52181;DHT22;38158;53.338;6.514;2022-10-16T12:31:49;16.30;99.90
52181;DHT22;38158;53.338;6.514;2022-10-16T12:36:53;16.40;99.90
52181;DHT22;38158;53.338;6.514;2022-10-16T12:39:24;16.40;99.90
52181;DHT22;38158;53.338;6.514;2022-10-16T12:44:51;16.50;99.90
52181;DHT22;38158;53.338;6.514;2022-10-16T12:49:58;16.50;99.90
52181;DHT22;38158;53.338;6.514;2022-10-16T12:52:43;16.60;99.90
52181;DHT22;38158;53.338;6.514;2022-10-16T12:55:16;16.70;99.90
52181;DHT22;38158;53.338;6.514;2022-10-16T13:00:55;16.70;99.90
52181;DHT22;38158;53.338;6.514;2022-10-16T13:12:03;16.50;99.90
52181;DHT22;38158;53.338;6.514;2022-10-16T13:28:21;16.10;99.90
52181;DHT22;38158;53.338;6.514;2022-10-16T13:30:53;16.10;99.90
52181;DHT22;38158;53.338;6.514;2022-10-16T13:33:37;16.10;99.90
52181;DHT22;38158;53.338;6.514;2022-10-16T13:36:04;16.10;99.90
52181;DHT22;38158;53.338;6.514;2022-10-16T13:38:34;16.10;99.90
52181;DHT22;38158;53.338;6.514;2022-10-16T13:41:17;16.10;99.90
52181;DHT22;38158;53.338;6.514;2022-10-16T13:46:19;16.00;99.90
52181;DHT22;38158;53.338;6.514;2022-10-16T13:48:56;16.00;99.90
52181;DHT22;38158;53.338;6.514;2022-10-16T13:51:22;15.90;99.90
52181;DHT22;38158;53.338;6.514;2022-10-16T13:53:48;15.90;99.90
52181;DHT22;38158;53.338;6.514;2022-10-16T13:56:17;15.80;99.90
52181;DHT22;38158;53.338;6.514;2022-10-16T13:58:43;15.80;99.90
52181;DHT22;38158;53.338;6.514;2022-10-16T14:01:25;15.80;99.90
52181;DHT22;38158;53.338;6.514;2022-10-16T14:03:52;15.80;99.90
52181;DHT22;38158;53.338;6.514;2022-10-16T14:06:21;15.80;99.90
52181;DHT22;38158;53.338;6.514;2022-10-16T14:09:00;15.80;99.90
52181;DHT22;38158;53.338;6.514;2022-10-16T14:11:27;15.80;99.90
52181;DHT22;38158;53.338;6.514;2022-10-16T14:13:54;15.70;99.90
52181;DHT22;38158;53.338;6.514;2022-10-16T14:16:22;15.60;99.90
52181;DHT22;38158;53.338;6.514;2022-10-16T14:19:04;15.60;99.90
52181;DHT22;38158;53.338;6.514;2022-10-16T14:21:32;15.60;99.90
52181;DHT22;38158;53.338;6.514;2022-10-16T14:23:58;15.50;99.90
52181;DHT22;38158;53.338;6.514;2022-10-16T14:26:27;15.50;99.90
52181;DHT22;38158;53.338;6.514;2022-10-16T14:29:13;15.40;99.90
52181;DHT22;38158;53.338;6.514;2022-10-16T14:31:39;15.40;99.90
52181;DHT22;38158;53.338;6.514;2022-10-16T14:34:23;15.40;99.90
52181;DHT22;38158;53.338;6.514;2022-10-16T14:36:50;15.30;99.90
52181;DHT22;38158;53.338;6.514;2022-10-16T14:39:20;15.30;99.90
52181;DHT22;38158;53.338;6.514;2022-10-16T14:41:49;15.20;99.90
52181;DHT22;38158;53.338;6.514;2022-10-16T14:44:17;15.10;99.90
52181;DHT22;38158;53.338;6.514;2022-10-16T14:46:44;15.10;99.90
52181;DHT22;38158;53.338;6.514;2022-10-16T14:51:41;15.00;99.90
52181;DHT22;38158;53.338;6.514;2022-10-16T14:54:12;15.00;99.90
52181;DHT22;38158;53.338;6.514;2022-10-16T14:56:48;15.00;99.90
52181;DHT22;38158;53.338;6.514;2022-10-16T14:59:31;15.00;99.90
52181;DHT22;38158;53.338;6.514;2022-10-16T15:01:57;14.90;99.90
52181;DHT22;38158;53.338;6.514;2022-10-16T15:04:23;14.80;99.90
52181;DHT22;38158;53.338;6.514;2022-10-16T15:06:49;14.80;99.90
52181;DHT22;38158;53.338;6.514;2022-10-16T15:09:15;14.70;99.90
52181;DHT22;38158;53.338;6.514;2022-10-16T15:11:41;14.70;99.90
52181;DHT22;38158;53.338;6.514;2022-10-16T15:14:11;14.70;99.90
52181;DHT22;38158;53.338;6.514;2022-10-16T15:16:38;14.70;99.90
52181;DHT22;38158;53.338;6.514;2022-10-16T15:19:03;14.60;99.90
52181;DHT22;38158;53.338;6.514;2022-10-16T15:21:31;14.60;99.90
52181;DHT22;38158;53.338;6.514;2022-10-16T15:23:58;14.60;99.90
52181;DHT22;38158;53.338;6.514;2022-10-16T15:26:26;14.60;99.90
52181;DHT22;38158;53.338;6.514;2022-10-16T15:28:51;14.60;99.90
52181;DHT22;38158;53.338;6.514;2022-10-16T15:31:17;14.50;99.90
52181;DHT22;38158;53.338;6.514;2022-10-16T15:33:43;14.50;99.90
52181;DHT22;38158;53.338;6.514;2022-10-16T15:36:09;14.40;99.90
52181;DHT22;38158;53.338;6.514;2022-10-16T15:38:35;14.40;99.90
52181;DHT22;38158;53.338;6.514;2022-10-16T15:41:01;14.30;99.90
52181;DHT22;38158;53.338;6.514;2022-10-16T15:43:27;14.30;99.90
52181;DHT22;38158;53.338;6.514;2022-10-16T15:46:05;14.30;99.90
52181;DHT22;38158;53.338;6.514;2022-10-16T15:48:32;14.30;99.90
52181;DHT22;38158;53.338;6.514;2022-10-16T15:50:58;14.30;99.90
52181;DHT22;38158;53.338;6.514;2022-10-16T15:53:23;14.30;99.90
52181;DHT22;38158;53.338;6.514;2022-10-16T15:55:49;14.20;99.90
52181;DHT22;38158;53.338;6.514;2022-10-16T15:58:15;14.30;99.90
52181;DHT22;38158;53.338;6.514;2022-10-16T16:00:41;14.20;99.90
52181;DHT22;38158;53.338;6.514;2022-10-16T16:03:06;14.20;99.90
52181;DHT22;38158;53.338;6.514;2022-10-16T16:05:32;14.20;99.90
52181;DHT22;38158;53.338;6.514;2022-10-16T16:07:58;14.10;99.90
52181;DHT22;38158;53.338;6.514;2022-10-16T16:10:24;14.10;99.90
52181;DHT22;38158;53.338;6.514;2022-10-16T16:12:50;14.00;99.90
52181;DHT22;38158;53.338;6.514;2022-10-16T16:15:20;14.00;99.90
52181;DHT22;38158;53.338;6.514;2022-10-16T16:17:45;13.90;99.90
52181;DHT22;38158;53.338;6.514;2022-10-16T16:20:12;13.90;99.90
52181;DHT22;38158;53.338;6.514;2022-10-16T16:22:37;13.80;99.90
52181;DHT22;38158;53.338;6.514;2022-10-16T16:25:03;13.70;99.90
52181;DHT22;38158;53.338;6.514;2022-10-16T16:27:29;13.70;99.90
52181;DHT22;38158;53.338;6.514;2022-10-16T16:29:58;13.60;99.90
52181;DHT22;38158;53.338;6.514;2022-10-16T16:32:24;13.60;99.90
52181;DHT22;38158;53.338;6.514;2022-10-16T16:34:50;13.50;99.90
52181;DHT22;38158;53.338;6.514;2022-10-16T16:37:16;13.50;99.90
52181;DHT22;38158;53.338;6.514;2022-10-16T16:39:42;13.40;99.90
52181;DHT22;38158;53.338;6.514;2022-10-16T16:42:08;13.40;99.90
52181;DHT22;38158;53.338;6.514;2022-10-16T16:44:35;13.40;99.90
52181;DHT22;38158;53.338;6.514;2022-10-16T16:47:02;13.40;99.90
52181;DHT22;38158;53.338;6.514;2022-10-16T16:49:28;13.30;99.90
52181;DHT22;38158;53.338;6.514;2022-10-16T16:51:54;13.30;99.90
52181;DHT22;38158;53.338;6.514;2022-10-16T16:54:20;13.20;99.90
52181;DHT22;38158;53.338;6.514;2022-10-16T16:56:46;13.10;99.90
52181;DHT22;38158;53.338;6.514;2022-10-16T16:59:17;13.10;99.90
52181;DHT22;38158;53.338;6.514;2022-10-16T17:01:45;13.10;99.90
52181;DHT22;38158;53.338;6.514;2022-10-16T17:04:11;13.00;99.90
52181;DHT22;38158;53.338;6.514;2022-10-16T17:06:37;13.00;99.90
52181;DHT22;38158;53.338;6.514;2022-10-16T17:09:04;13.00;99.90
52181;DHT22;38158;53.338;6.514;2022-10-16T17:11:30;12.90;99.90
52181;DHT22;38158;53.338;6.514;2022-10-16T17:13:57;12.90;99.90
52181;DHT22;38158;53.338;6.514;2022-10-16T17:16:32;12.90;99.90
52181;DHT22;38158;53.338;6.514;2022-10-16T17:19:03;12.90;99.90
52181;DHT22;38158;53.338;6.514;2022-10-16T17:21:29;12.80;99.90
52181;DHT22;38158;53.338;6.514;2022-10-16T17:23:56;12.80;99.90
52181;DHT22;38158;53.338;6.514;2022-10-16T17:26:22;12.80;99.90
52181;DHT22;38158;53.338;6.514;2022-10-16T17:28:52;12.70;99.90
52181;DHT22;38158;53.338;6.514;2022-10-16T17:31:22;12.70;99.90
52181;DHT22;38158;53.338;6.514;2022-10-16T17:33:48;12.70;99.90
52181;DHT22;38158;53.338;6.514;2022-10-16T17:36:14;12.60;99.90
52181;DHT22;38158;53.338;6.514;2022-10-16T17:38:41;12.70;99.90
52181;DHT22;38158;53.338;6.514;2022-10-16T17:43:37;12.60;99.90
52181;DHT22;38158;53.338;6.514;2022-10-16T17:46:04;12.60;99.90
52181;DHT22;38158;53.338;6.514;2022-10-16T17:48:30;12.60;99.90
52181;DHT22;38158;53.338;6.514;2022-10-16T17:50:56;12.60;99.90
52181;DHT22;38158;53.338;6.514;2022-10-16T17:53:21;12.50;99.90
52181;DHT22;38158;53.338;6.514;2022-10-16T17:55:47;12.50;99.90
52181;DHT22;38158;53.338;6.514;2022-10-16T17:58:12;12.50;99.90
52181;DHT22;38158;53.338;6.514;2022-10-16T18:00:38;12.40;99.90
52181;DHT22;38158;53.338;6.514;2022-10-16T18:03:04;12.40;99.90
52181;DHT22;38158;53.338;6.514;2022-10-16T18:05:30;12.40;99.90
52181;DHT22;38158;53.338;6.514;2022-10-16T18:07:55;12.40;99.90
52181;DHT22;38158;53.338;6.514;2022-10-16T18:10:22;12.40;99.90
52181;DHT22;38158;53.338;6.514;2022-10-16T18:12:48;12.30;99.90